FIN6HL LHBP-EFHK
Flight info
| Callsign | FIN6HL |
|---|---|
| Flight time | 2h 11m |
| Altitude | 37000 |
| Route | LITKU Y301 KALIF DCT SUPAK DCT BOKSU DCT GUNTA DCT KEMET Q11 INTOR |
| Aircraft | A320/M-SDE3FGHIRWY/LB1 |
Departure
| Time | 2026-04-23 16:56 |
|---|---|
| Airport | Budapest Liszt Ferenc International Airport (LHBP) |
Arrival
| Time | 2026-04-23 19:08 |
|---|---|
| Airport | Helsinki Vantaa Airport (EFHK) |
| Time | Latitude | Longitude | Altitude | Speed | Heading |
|---|---|---|---|---|---|
| 2026-04-23 16:31 | 47.43458 | 19.26176 | 485 ft | 0 kts | 96° |
| 2026-04-23 16:45 | 47.43459 | 19.26169 | 478 ft | 2 kts | 96° |
| 2026-04-23 16:45 | 47.43460 | 19.26147 | 478 ft | 2 kts | 96° |
| 2026-04-23 16:45 | 47.43463 | 19.26123 | 479 ft | 2 kts | 122° |
| 2026-04-23 16:45 | 47.43473 | 19.26106 | 476 ft | 2 kts | 148° |
| 2026-04-23 16:46 | 47.43487 | 19.26094 | 478 ft | 2 kts | 154° |
| 2026-04-23 16:46 | 47.43503 | 19.26083 | 477 ft | 3 kts | 167° |
| 2026-04-23 16:46 | 47.43521 | 19.26082 | 476 ft | 3 kts | 204° |
| 2026-04-23 16:46 | 47.43533 | 19.26092 | 479 ft | 0 kts | 232° |
| 2026-04-23 16:50 | 47.43528 | 19.26072 | 479 ft | 7 kts | 254° |
| 2026-04-23 16:51 | 47.43531 | 19.25991 | 481 ft | 9 kts | 280° |
| 2026-04-23 16:51 | 47.43530 | 19.25890 | 476 ft | 11 kts | 239° |
| 2026-04-23 16:51 | 47.43493 | 19.25812 | 478 ft | 8 kts | 259° |
| 2026-04-23 16:51 | 47.43508 | 19.25765 | 475 ft | 5 kts | 308° |
| 2026-04-23 16:52 | 47.43537 | 19.25716 | 482 ft | 7 kts | 312° |
| 2026-04-23 16:52 | 47.43536 | 19.25653 | 482 ft | 7 kts | 241° |
| 2026-04-23 16:52 | 47.43483 | 19.25572 | 475 ft | 12 kts | 223° |
| 2026-04-23 16:52 | 47.43419 | 19.25485 | 474 ft | 14 kts | 222° |
| 2026-04-23 16:53 | 47.43341 | 19.25380 | 467 ft | 14 kts | 221° |
| 2026-04-23 16:53 | 47.43262 | 19.25276 | 462 ft | 17 kts | 222° |
| 2026-04-23 16:53 | 47.43176 | 19.25161 | 457 ft | 12 kts | 222° |
| 2026-04-23 16:53 | 47.43164 | 19.25145 | 458 ft | 0 kts | 223° |
| 2026-04-23 16:54 | 47.43134 | 19.25103 | 457 ft | 8 kts | 223° |
| 2026-04-23 16:54 | 47.43096 | 19.25043 | 456 ft | 9 kts | 239° |
| 2026-04-23 16:55 | 47.43101 | 19.24944 | 457 ft | 10 kts | 298° |
| 2026-04-23 16:55 | 47.43167 | 19.24828 | 456 ft | 26 kts | 312° |
| 2026-04-23 16:55 | 47.43440 | 19.24388 | 454 ft | 91 kts | 312° |
| 2026-04-23 16:55 | 47.44000 | 19.23485 | 455 ft | 145 kts | 312° |
| 2026-04-23 16:56 | 47.44724 | 19.22323 | 844 ft | 160 kts | 313° |
| 2026-04-23 16:56 | 47.45490 | 19.21070 | 1369 ft | 171 kts | 313° |
| 2026-04-23 16:56 | 47.46034 | 19.20162 | 1742 ft | 179 kts | 312° |
| 2026-04-23 16:56 | 47.47174 | 19.18232 | 2374 ft | 198 kts | 314° |
| 2026-04-23 16:57 | 47.48144 | 19.16693 | 2834 ft | 213 kts | 316° |
| 2026-04-23 16:57 | 47.49405 | 19.15496 | 3496 ft | 221 kts | 341° |
| 2026-04-23 16:57 | 47.50941 | 19.15019 | 4192 ft | 233 kts | 355° |
| 2026-04-23 16:57 | 47.52606 | 19.14984 | 4840 ft | 248 kts | 1° |
| 2026-04-23 16:58 | 47.54342 | 19.15350 | 5603 ft | 256 kts | 16° |
| 2026-04-23 16:58 | 47.55951 | 19.16532 | 6492 ft | 262 kts | 32° |
| 2026-04-23 16:58 | 47.57444 | 19.18038 | 7352 ft | 265 kts | 33° |
| 2026-04-23 16:58 | 47.58950 | 19.19644 | 8202 ft | 268 kts | 34° |
| 2026-04-23 16:59 | 47.60464 | 19.21291 | 9076 ft | 272 kts | 35° |
| 2026-04-23 16:59 | 47.61997 | 19.22962 | 9923 ft | 275 kts | 35° |
| 2026-04-23 16:59 | 47.63570 | 19.24668 | 10467 ft | 290 kts | 35° |
| 2026-04-23 16:59 | 47.65263 | 19.26498 | 10727 ft | 312 kts | 35° |
| 2026-04-23 17:00 | 47.67043 | 19.28420 | 11324 ft | 321 kts | 35° |
| 2026-04-23 17:00 | 47.68858 | 19.30380 | 12076 ft | 324 kts | 35° |
| 2026-04-23 17:00 | 47.70661 | 19.32420 | 12852 ft | 328 kts | 41° |
| 2026-04-23 17:00 | 47.72309 | 19.34714 | 13632 ft | 330 kts | 43° |
| 2026-04-23 17:01 | 47.73987 | 19.37066 | 14340 ft | 333 kts | 43° |
| 2026-04-23 17:01 | 47.75678 | 19.39434 | 15021 ft | 335 kts | 43° |
| 2026-04-23 17:01 | 47.77379 | 19.41816 | 15719 ft | 337 kts | 43° |
| 2026-04-23 17:01 | 47.79091 | 19.44213 | 16399 ft | 339 kts | 43° |
| 2026-04-23 17:02 | 47.80272 | 19.45733 | 16835 ft | 341 kts | 36° |
| 2026-04-23 17:02 | 47.83046 | 19.48046 | 17708 ft | 345 kts | 21° |
| 2026-04-23 17:02 | 47.85368 | 19.48994 | 18350 ft | 348 kts | 12° |
| 2026-04-23 17:02 | 47.87754 | 19.49700 | 18916 ft | 351 kts | 13° |
| 2026-04-23 17:03 | 47.90157 | 19.50405 | 19499 ft | 353 kts | 12° |
| 2026-04-23 17:03 | 47.92543 | 19.51079 | 20052 ft | 356 kts | 12° |
| 2026-04-23 17:03 | 47.94986 | 19.51764 | 20623 ft | 358 kts | 13° |
| 2026-04-23 17:03 | 47.97445 | 19.52458 | 21193 ft | 361 kts | 13° |
| 2026-04-23 17:04 | 47.99922 | 19.53162 | 21750 ft | 364 kts | 13° |
| 2026-04-23 17:04 | 48.02417 | 19.53875 | 22311 ft | 366 kts | 13° |
| 2026-04-23 17:04 | 48.04930 | 19.54600 | 22854 ft | 369 kts | 13° |
| 2026-04-23 17:04 | 48.07460 | 19.55334 | 23399 ft | 372 kts | 13° |
| 2026-04-23 17:05 | 48.10008 | 19.56073 | 23850 ft | 374 kts | 13° |
| 2026-04-23 17:05 | 48.12538 | 19.56805 | 24270 ft | 376 kts | 13° |
| 2026-04-23 17:05 | 48.15116 | 19.57550 | 24699 ft | 378 kts | 13° |
| 2026-04-23 17:05 | 48.17709 | 19.58299 | 25100 ft | 381 kts | 14° |
| 2026-04-23 17:06 | 48.20317 | 19.59053 | 25504 ft | 383 kts | 14° |
| 2026-04-23 17:06 | 48.22956 | 19.59658 | 25886 ft | 387 kts | 7° |
| 2026-04-23 17:06 | 48.25670 | 19.59620 | 26276 ft | 393 kts | 0° |
| 2026-04-23 17:06 | 48.28408 | 19.59354 | 26651 ft | 395 kts | 0° |
| 2026-04-23 17:07 | 48.31161 | 19.59081 | 27024 ft | 397 kts | 0° |
| 2026-04-23 17:07 | 48.33928 | 19.58806 | 27387 ft | 400 kts | 1° |
| 2026-04-23 17:07 | 48.36710 | 19.58535 | 27755 ft | 402 kts | 1° |
| 2026-04-23 17:07 | 48.39470 | 19.58268 | 28114 ft | 404 kts | 1° |
| 2026-04-23 17:08 | 48.42281 | 19.57996 | 28475 ft | 406 kts | 1° |
| 2026-04-23 17:08 | 48.45107 | 19.57721 | 28807 ft | 408 kts | 2° |
| 2026-04-23 17:08 | 48.47948 | 19.57447 | 29134 ft | 410 kts | 2° |
| 2026-04-23 17:08 | 48.50790 | 19.57407 | 29431 ft | 406 kts | 10° |
| 2026-04-23 17:09 | 48.53572 | 19.58010 | 29758 ft | 403 kts | 16° |
| 2026-04-23 17:09 | 48.56331 | 19.58790 | 30050 ft | 405 kts | 16° |
| 2026-04-23 17:09 | 48.59105 | 19.59580 | 30311 ft | 407 kts | 16° |
| 2026-04-23 17:09 | 48.60951 | 19.60107 | 30472 ft | 408 kts | 16° |
| 2026-04-23 17:10 | 48.63744 | 19.60905 | 30700 ft | 409 kts | 16° |
| 2026-04-23 17:10 | 48.67463 | 19.61959 | 30996 ft | 412 kts | 16° |
| 2026-04-23 17:10 | 48.70287 | 19.62755 | 31209 ft | 414 kts | 16° |
| 2026-04-23 17:10 | 48.73115 | 19.63552 | 31516 ft | 413 kts | 15° |
| 2026-04-23 17:11 | 48.75025 | 19.64090 | 31728 ft | 413 kts | 15° |
| 2026-04-23 17:11 | 48.77810 | 19.64874 | 32022 ft | 412 kts | 15° |
| 2026-04-23 17:11 | 48.80622 | 19.65673 | 32319 ft | 412 kts | 15° |
| 2026-04-23 17:11 | 48.83437 | 19.66478 | 32608 ft | 412 kts | 15° |
| 2026-04-23 17:12 | 48.86253 | 19.67284 | 32898 ft | 412 kts | 15° |
| 2026-04-23 17:12 | 48.89068 | 19.68087 | 33118 ft | 412 kts | 15° |
| 2026-04-23 17:12 | 48.92797 | 19.69149 | 33492 ft | 412 kts | 14° |
| 2026-04-23 17:12 | 48.94701 | 19.69692 | 33679 ft | 412 kts | 14° |
| 2026-04-23 17:13 | 48.97480 | 19.70489 | 33923 ft | 412 kts | 14° |
| 2026-04-23 17:13 | 49.00297 | 19.71297 | 34129 ft | 412 kts | 14° |
| 2026-04-23 17:13 | 49.03113 | 19.72104 | 34414 ft | 411 kts | 14° |
| 2026-04-23 17:13 | 49.05924 | 19.72911 | 34666 ft | 411 kts | 14° |
| 2026-04-23 17:14 | 49.08735 | 19.73720 | 34891 ft | 411 kts | 14° |
| 2026-04-23 17:14 | 49.11546 | 19.74531 | 35092 ft | 411 kts | 14° |
| 2026-04-23 17:14 | 49.14358 | 19.75341 | 35304 ft | 411 kts | 14° |
| 2026-04-23 17:14 | 49.17165 | 19.76151 | 35495 ft | 412 kts | 14° |
| 2026-04-23 17:15 | 49.19979 | 19.76964 | 35726 ft | 411 kts | 13° |
| 2026-04-23 17:15 | 49.22755 | 19.77763 | 35927 ft | 411 kts | 13° |
| 2026-04-23 17:15 | 49.25568 | 19.78575 | 36153 ft | 411 kts | 13° |
| 2026-04-23 17:15 | 49.28379 | 19.79388 | 36351 ft | 411 kts | 13° |
| 2026-04-23 17:16 | 49.31150 | 19.80428 | 36524 ft | 409 kts | 21° |
| 2026-04-23 17:16 | 49.33813 | 19.81958 | 36676 ft | 409 kts | 22° |
| 2026-04-23 17:16 | 49.36480 | 19.83513 | 36806 ft | 411 kts | 22° |
| 2026-04-23 17:16 | 49.39153 | 19.85065 | 36967 ft | 411 kts | 22° |
| 2026-04-23 17:17 | 49.44500 | 19.88168 | 37018 ft | 417 kts | 22° |
| 2026-04-23 17:17 | 49.49965 | 19.91356 | 37024 ft | 423 kts | 22° |
| 2026-04-23 17:18 | 49.58271 | 19.96198 | 37018 ft | 427 kts | 22° |
| 2026-04-23 17:19 | 49.63832 | 19.99454 | 37015 ft | 428 kts | 22° |
| 2026-04-23 17:19 | 49.69251 | 20.02646 | 37013 ft | 427 kts | 22° |
| 2026-04-23 17:20 | 49.74799 | 20.05935 | 37012 ft | 427 kts | 22° |
| 2026-04-23 17:21 | 49.85885 | 20.12488 | 37012 ft | 426 kts | 22° |
| 2026-04-23 17:21 | 49.94153 | 20.17393 | 37017 ft | 426 kts | 22° |
| 2026-04-23 17:22 | 50.02438 | 20.22336 | 37011 ft | 425 kts | 22° |
| 2026-04-23 17:23 | 50.10703 | 20.27285 | 37008 ft | 424 kts | 22° |
| 2026-04-23 17:24 | 50.18905 | 20.32204 | 37008 ft | 423 kts | 22° |
| 2026-04-23 17:24 | 50.27123 | 20.37160 | 37005 ft | 421 kts | 22° |
| 2026-04-23 17:25 | 50.35317 | 20.42115 | 37002 ft | 420 kts | 22° |
| 2026-04-23 17:26 | 50.46168 | 20.48710 | 36997 ft | 419 kts | 22° |
| 2026-04-23 17:27 | 50.54300 | 20.53678 | 36989 ft | 418 kts | 22° |
| 2026-04-23 17:27 | 50.59714 | 20.56991 | 36985 ft | 417 kts | 22° |
| 2026-04-23 17:28 | 50.65084 | 20.60289 | 36990 ft | 417 kts | 22° |
| 2026-04-23 17:28 | 50.70485 | 20.63604 | 36993 ft | 416 kts | 22° |
| 2026-04-23 17:29 | 50.75879 | 20.66923 | 36981 ft | 416 kts | 22° |
| 2026-04-23 17:30 | 50.83946 | 20.71921 | 36993 ft | 415 kts | 22° |
| 2026-04-23 17:30 | 50.91969 | 20.76905 | 36989 ft | 414 kts | 22° |
| 2026-04-23 17:31 | 50.97334 | 20.80250 | 36988 ft | 414 kts | 22° |
| 2026-04-23 17:31 | 51.02696 | 20.83590 | 36988 ft | 414 kts | 21° |
| 2026-04-23 17:32 | 51.08051 | 20.86931 | 36985 ft | 413 kts | 21° |
| 2026-04-23 17:32 | 51.13391 | 20.90286 | 36990 ft | 413 kts | 22° |
| 2026-04-23 17:33 | 51.18696 | 20.93625 | 36982 ft | 412 kts | 21° |
| 2026-04-23 17:33 | 51.24030 | 20.96989 | 36986 ft | 412 kts | 21° |
| 2026-04-23 17:34 | 51.29359 | 21.00357 | 36982 ft | 412 kts | 21° |
| 2026-04-23 17:35 | 51.37302 | 21.05404 | 36988 ft | 411 kts | 21° |
| 2026-04-23 17:35 | 51.45270 | 21.10473 | 36989 ft | 410 kts | 21° |
| 2026-04-23 17:36 | 51.50566 | 21.13855 | 36984 ft | 410 kts | 21° |
| 2026-04-23 17:36 | 51.55858 | 21.17243 | 36986 ft | 409 kts | 21° |
| 2026-04-23 17:37 | 51.61109 | 21.20607 | 36982 ft | 409 kts | 21° |
| 2026-04-23 17:38 | 51.69021 | 21.25704 | 36987 ft | 408 kts | 21° |
| 2026-04-23 17:38 | 51.74290 | 21.29102 | 36983 ft | 408 kts | 21° |
| 2026-04-23 17:39 | 51.79552 | 21.32506 | 36857 ft | 407 kts | 20° |
| 2026-04-23 17:39 | 51.82159 | 21.34200 | 36961 ft | 403 kts | 19° |
| 2026-04-23 17:39 | 51.84752 | 21.35885 | 36979 ft | 402 kts | 19° |
| 2026-04-23 17:40 | 51.89907 | 21.39232 | 37001 ft | 401 kts | 19° |
| 2026-04-23 17:40 | 51.95070 | 21.42599 | 37003 ft | 400 kts | 19° |
| 2026-04-23 17:41 | 52.00230 | 21.45980 | 36997 ft | 399 kts | 19° |
| 2026-04-23 17:41 | 52.07912 | 21.51008 | 36997 ft | 399 kts | 19° |
| 2026-04-23 17:42 | 52.15632 | 21.56082 | 36997 ft | 399 kts | 19° |
| 2026-04-23 17:43 | 52.20770 | 21.59471 | 36998 ft | 399 kts | 19° |
| 2026-04-23 17:43 | 52.25911 | 21.62877 | 36999 ft | 399 kts | 19° |
| 2026-04-23 17:44 | 52.31013 | 21.66277 | 37002 ft | 398 kts | 19° |
| 2026-04-23 17:44 | 52.38710 | 21.71397 | 36997 ft | 398 kts | 19° |
| 2026-04-23 17:45 | 52.46385 | 21.76530 | 36997 ft | 397 kts | 19° |
| 2026-04-23 17:46 | 52.54025 | 21.81650 | 36996 ft | 397 kts | 19° |
| 2026-04-23 17:46 | 52.59141 | 21.85085 | 36994 ft | 397 kts | 19° |
| 2026-04-23 17:47 | 52.64258 | 21.88540 | 36996 ft | 398 kts | 19° |
| 2026-04-23 17:48 | 52.71931 | 21.93750 | 36994 ft | 397 kts | 19° |
| 2026-04-23 17:48 | 52.77005 | 21.97200 | 36999 ft | 397 kts | 19° |
| 2026-04-23 17:49 | 52.82120 | 22.00671 | 36998 ft | 397 kts | 19° |
| 2026-04-23 17:49 | 52.87234 | 22.04146 | 36995 ft | 397 kts | 19° |
| 2026-04-23 17:50 | 52.92345 | 22.07646 | 36992 ft | 397 kts | 19° |
| 2026-04-23 17:50 | 52.99975 | 22.12895 | 36997 ft | 398 kts | 19° |
| 2026-04-23 17:51 | 53.05081 | 22.16409 | 36991 ft | 398 kts | 19° |
| 2026-04-23 17:52 | 53.12771 | 22.21721 | 36996 ft | 398 kts | 19° |
| 2026-04-23 17:52 | 53.20382 | 22.26997 | 36995 ft | 398 kts | 19° |
| 2026-04-23 17:53 | 53.28049 | 22.32338 | 36991 ft | 398 kts | 19° |
| 2026-04-23 17:54 | 53.33160 | 22.35910 | 36995 ft | 398 kts | 19° |
| 2026-04-23 17:54 | 53.40790 | 22.41253 | 36992 ft | 398 kts | 19° |
| 2026-04-23 17:55 | 53.48456 | 22.46652 | 36990 ft | 398 kts | 19° |
| 2026-04-23 17:56 | 53.53569 | 22.50252 | 36992 ft | 398 kts | 19° |
| 2026-04-23 17:56 | 53.61203 | 22.55652 | 36988 ft | 399 kts | 19° |
| 2026-04-23 17:57 | 53.66312 | 22.59290 | 36987 ft | 399 kts | 19° |
| 2026-04-23 17:58 | 53.73971 | 22.64751 | 36984 ft | 399 kts | 19° |
| 2026-04-23 17:58 | 53.79047 | 22.68375 | 36983 ft | 399 kts | 19° |
| 2026-04-23 17:59 | 53.84155 | 22.72039 | 36977 ft | 399 kts | 19° |
| 2026-04-23 17:59 | 53.89263 | 22.75710 | 36978 ft | 399 kts | 19° |
| 2026-04-23 18:00 | 53.94369 | 22.79393 | 36974 ft | 399 kts | 19° |
| 2026-04-23 18:00 | 53.99453 | 22.83055 | 36972 ft | 398 kts | 19° |
| 2026-04-23 18:01 | 54.04516 | 22.86717 | 36969 ft | 398 kts | 19° |
| 2026-04-23 18:01 | 54.09612 | 22.90433 | 36966 ft | 398 kts | 19° |
| 2026-04-23 18:02 | 54.14706 | 22.94151 | 36968 ft | 398 kts | 19° |
| 2026-04-23 18:02 | 54.19800 | 22.97868 | 36969 ft | 398 kts | 19° |
| 2026-04-23 18:03 | 54.24856 | 23.01573 | 36960 ft | 398 kts | 19° |
| 2026-04-23 18:03 | 54.29944 | 23.05276 | 36962 ft | 396 kts | 16° |
| 2026-04-23 18:04 | 54.35279 | 23.07354 | 36958 ft | 393 kts | 8° |
| 2026-04-23 18:04 | 54.40656 | 23.09065 | 36954 ft | 393 kts | 8° |
| 2026-04-23 18:05 | 54.46029 | 23.10809 | 36954 ft | 393 kts | 8° |
| 2026-04-23 18:05 | 54.51369 | 23.12523 | 36954 ft | 393 kts | 8° |
| 2026-04-23 18:06 | 54.56742 | 23.14268 | 36953 ft | 393 kts | 9° |
| 2026-04-23 18:06 | 54.62112 | 23.16026 | 36950 ft | 393 kts | 9° |
| 2026-04-23 18:07 | 54.67481 | 23.17779 | 36954 ft | 392 kts | 8° |
| 2026-04-23 18:07 | 54.72807 | 23.19510 | 36947 ft | 392 kts | 9° |
| 2026-04-23 18:08 | 54.77304 | 23.20981 | 36947 ft | 392 kts | 9° |
| 2026-04-23 18:08 | 54.83535 | 23.23029 | 36948 ft | 392 kts | 9° |
| 2026-04-23 18:09 | 54.88896 | 23.24789 | 36947 ft | 392 kts | 9° |
| 2026-04-23 18:09 | 54.94255 | 23.26557 | 36952 ft | 392 kts | 9° |
| 2026-04-23 18:10 | 54.99571 | 23.28317 | 36945 ft | 392 kts | 9° |
| 2026-04-23 18:10 | 55.04926 | 23.30102 | 36948 ft | 392 kts | 9° |
| 2026-04-23 18:11 | 55.10281 | 23.31881 | 36950 ft | 392 kts | 8° |
| 2026-04-23 18:11 | 55.15635 | 23.33647 | 36946 ft | 391 kts | 9° |
| 2026-04-23 18:12 | 55.20949 | 23.35433 | 36955 ft | 391 kts | 9° |
| 2026-04-23 18:12 | 55.26293 | 23.37234 | 36949 ft | 391 kts | 9° |
| 2026-04-23 18:13 | 55.31642 | 23.39035 | 36945 ft | 391 kts | 9° |
| 2026-04-23 18:13 | 55.36991 | 23.40832 | 36943 ft | 391 kts | 9° |
| 2026-04-23 18:14 | 55.42341 | 23.42638 | 36946 ft | 391 kts | 9° |
| 2026-04-23 18:14 | 55.47655 | 23.44442 | 36944 ft | 392 kts | 9° |
| 2026-04-23 18:15 | 55.53007 | 23.46254 | 36944 ft | 392 kts | 9° |
| 2026-04-23 18:15 | 55.58360 | 23.48080 | 36947 ft | 392 kts | 9° |
| 2026-04-23 18:16 | 55.63713 | 23.49912 | 36952 ft | 392 kts | 9° |
| 2026-04-23 18:16 | 55.69025 | 23.51733 | 36954 ft | 392 kts | 9° |
| 2026-04-23 18:17 | 55.77054 | 23.54506 | 36960 ft | 392 kts | 9° |
| 2026-04-23 18:17 | 55.82408 | 23.56351 | 36964 ft | 392 kts | 9° |
| 2026-04-23 18:18 | 55.87728 | 23.58177 | 36966 ft | 392 kts | 9° |
| 2026-04-23 18:18 | 55.93081 | 23.60042 | 36968 ft | 392 kts | 9° |
| 2026-04-23 18:19 | 55.98434 | 23.61905 | 36961 ft | 392 kts | 9° |
| 2026-04-23 18:19 | 56.03779 | 23.63774 | 36961 ft | 392 kts | 9° |
| 2026-04-23 18:20 | 56.09094 | 23.65635 | 36960 ft | 392 kts | 9° |
| 2026-04-23 18:20 | 56.14445 | 23.67503 | 36958 ft | 392 kts | 9° |
| 2026-04-23 18:21 | 56.19793 | 23.69392 | 36960 ft | 392 kts | 9° |
| 2026-04-23 18:21 | 56.25134 | 23.71291 | 36963 ft | 392 kts | 9° |
| 2026-04-23 18:22 | 56.30481 | 23.73185 | 36956 ft | 392 kts | 9° |
| 2026-04-23 18:22 | 56.35792 | 23.75063 | 36959 ft | 391 kts | 9° |
| 2026-04-23 18:23 | 56.43820 | 23.77803 | 36962 ft | 391 kts | 8° |
| 2026-04-23 18:24 | 56.51820 | 23.80425 | 36963 ft | 391 kts | 8° |
| 2026-04-23 18:25 | 56.59846 | 23.83107 | 36957 ft | 391 kts | 8° |
| 2026-04-23 18:25 | 56.65206 | 23.84913 | 36955 ft | 391 kts | 8° |
| 2026-04-23 18:26 | 56.70555 | 23.86709 | 36951 ft | 391 kts | 8° |
| 2026-04-23 18:26 | 56.75911 | 23.88515 | 36949 ft | 391 kts | 8° |
| 2026-04-23 18:27 | 56.81231 | 23.90316 | 36942 ft | 391 kts | 8° |
| 2026-04-23 18:27 | 56.86587 | 23.92138 | 36939 ft | 392 kts | 8° |
| 2026-04-23 18:28 | 56.91945 | 23.93967 | 36944 ft | 392 kts | 8° |
| 2026-04-23 18:28 | 56.97282 | 23.95784 | 36939 ft | 392 kts | 8° |
| 2026-04-23 18:29 | 57.02584 | 23.97599 | 36944 ft | 392 kts | 8° |
| 2026-04-23 18:29 | 57.07946 | 23.99448 | 36951 ft | 392 kts | 8° |
| 2026-04-23 18:30 | 57.13303 | 24.01303 | 36948 ft | 392 kts | 8° |
| 2026-04-23 18:30 | 57.18667 | 24.03169 | 36954 ft | 392 kts | 8° |
| 2026-04-23 18:31 | 57.23997 | 24.05018 | 36956 ft | 392 kts | 8° |
| 2026-04-23 18:31 | 57.29365 | 24.06877 | 36956 ft | 392 kts | 8° |
| 2026-04-23 18:32 | 57.34734 | 24.08732 | 36952 ft | 392 kts | 8° |
| 2026-04-23 18:32 | 57.40063 | 24.10594 | 36953 ft | 392 kts | 8° |
| 2026-04-23 18:33 | 57.45423 | 24.12482 | 36945 ft | 392 kts | 8° |
| 2026-04-23 18:33 | 57.50776 | 24.14363 | 36945 ft | 392 kts | 8° |
| 2026-04-23 18:34 | 57.56137 | 24.16248 | 36943 ft | 392 kts | 8° |
| 2026-04-23 18:34 | 57.61504 | 24.18153 | 36942 ft | 393 kts | 8° |
| 2026-04-23 18:35 | 57.66840 | 24.20054 | 36941 ft | 393 kts | 8° |
| 2026-04-23 18:35 | 57.72207 | 24.21965 | 36937 ft | 393 kts | 8° |
| 2026-04-23 18:36 | 57.77576 | 24.23888 | 36937 ft | 393 kts | 8° |
| 2026-04-23 18:36 | 57.82951 | 24.25820 | 36933 ft | 393 kts | 8° |
| 2026-04-23 18:37 | 57.88282 | 24.27723 | 36935 ft | 393 kts | 8° |
| 2026-04-23 18:37 | 57.93656 | 24.29660 | 36932 ft | 393 kts | 8° |
| 2026-04-23 18:38 | 57.99029 | 24.31614 | 36930 ft | 393 kts | 8° |
| 2026-04-23 18:38 | 58.04405 | 24.33565 | 36927 ft | 394 kts | 8° |
| 2026-04-23 18:39 | 58.09742 | 24.35508 | 36925 ft | 394 kts | 8° |
| 2026-04-23 18:39 | 58.15071 | 24.37463 | 36897 ft | 382 kts | 8° |
| 2026-04-23 18:40 | 58.20236 | 24.39359 | 36899 ft | 376 kts | 8° |
| 2026-04-23 18:40 | 58.25369 | 24.41221 | 36895 ft | 375 kts | 8° |
| 2026-04-23 18:41 | 58.30463 | 24.43087 | 36895 ft | 375 kts | 8° |
| 2026-04-23 18:41 | 58.35586 | 24.44983 | 36894 ft | 375 kts | 8° |
| 2026-04-23 18:42 | 58.40720 | 24.46884 | 36895 ft | 375 kts | 8° |
| 2026-04-23 18:42 | 58.45843 | 24.48788 | 36900 ft | 376 kts | 8° |
| 2026-04-23 18:43 | 58.50942 | 24.50683 | 36903 ft | 376 kts | 8° |
| 2026-04-23 18:43 | 58.56078 | 24.52602 | 36907 ft | 376 kts | 8° |
| 2026-04-23 18:44 | 58.61219 | 24.54526 | 36905 ft | 377 kts | 8° |
| 2026-04-23 18:44 | 58.66364 | 24.56456 | 36906 ft | 377 kts | 8° |
| 2026-04-23 18:45 | 58.71507 | 24.58392 | 36908 ft | 377 kts | 8° |
| 2026-04-23 18:45 | 58.76658 | 24.60294 | 36908 ft | 377 kts | 8° |
| 2026-04-23 18:46 | 58.81780 | 24.62106 | 36904 ft | 377 kts | 8° |
| 2026-04-23 18:46 | 58.86934 | 24.63935 | 36899 ft | 376 kts | 8° |
| 2026-04-23 18:47 | 58.92082 | 24.65804 | 36896 ft | 376 kts | 8° |
| 2026-04-23 18:47 | 58.97226 | 24.67682 | 36893 ft | 376 kts | 8° |
| 2026-04-23 18:48 | 59.02364 | 24.69540 | 36891 ft | 376 kts | 8° |
| 2026-04-23 18:48 | 59.07473 | 24.71395 | 36891 ft | 376 kts | 8° |
| 2026-04-23 18:49 | 59.12618 | 24.73285 | 36872 ft | 377 kts | 8° |
| 2026-04-23 18:49 | 59.17772 | 24.75178 | 36878 ft | 377 kts | 8° |
| 2026-04-23 18:50 | 59.22057 | 24.76750 | 36881 ft | 377 kts | 8° |
| 2026-04-23 18:50 | 59.28044 | 24.78946 | 36743 ft | 378 kts | 8° |
| 2026-04-23 18:50 | 59.30626 | 24.79899 | 36103 ft | 377 kts | 8° |
| 2026-04-23 18:51 | 59.33189 | 24.80855 | 35478 ft | 372 kts | 8° |
| 2026-04-23 18:51 | 59.35709 | 24.81800 | 34831 ft | 366 kts | 8° |
| 2026-04-23 18:51 | 59.38206 | 24.82735 | 34168 ft | 365 kts | 8° |
| 2026-04-23 18:51 | 59.40649 | 24.83724 | 33446 ft | 353 kts | 11° |
| 2026-04-23 18:52 | 59.42931 | 24.85307 | 32688 ft | 343 kts | 17° |
| 2026-04-23 18:52 | 59.45091 | 24.87110 | 31952 ft | 331 kts | 17° |
| 2026-04-23 18:52 | 59.47181 | 24.88853 | 31235 ft | 321 kts | 17° |
| 2026-04-23 18:52 | 59.49181 | 24.90516 | 30545 ft | 312 kts | 16° |
| 2026-04-23 18:53 | 59.51152 | 24.92148 | 29854 ft | 303 kts | 16° |
| 2026-04-23 18:53 | 59.53079 | 24.93742 | 29054 ft | 299 kts | 16° |
| 2026-04-23 18:53 | 59.55002 | 24.95329 | 28285 ft | 302 kts | 16° |
| 2026-04-23 18:53 | 59.56949 | 24.96934 | 27528 ft | 304 kts | 16° |
| 2026-04-23 18:54 | 59.58911 | 24.98560 | 26791 ft | 308 kts | 16° |
| 2026-04-23 18:54 | 59.60896 | 25.00211 | 26080 ft | 312 kts | 17° |
| 2026-04-23 18:54 | 59.62906 | 25.01887 | 25381 ft | 316 kts | 17° |
| 2026-04-23 18:54 | 59.64940 | 25.03569 | 24702 ft | 318 kts | 14° |
| 2026-04-23 18:55 | 59.67050 | 25.04390 | 24023 ft | 303 kts | 1° |
| 2026-04-23 18:55 | 59.69116 | 25.04605 | 23479 ft | 290 kts | 0° |
| 2026-04-23 18:55 | 59.71062 | 25.04778 | 22948 ft | 278 kts | 0° |
| 2026-04-23 18:55 | 59.72967 | 25.04949 | 22405 ft | 272 kts | 0° |
| 2026-04-23 18:56 | 59.74226 | 25.05062 | 22049 ft | 273 kts | 0° |
| 2026-04-23 18:56 | 59.76738 | 25.05293 | 21345 ft | 268 kts | 0° |
| 2026-04-23 18:56 | 59.78592 | 25.05468 | 20831 ft | 266 kts | 0° |
| 2026-04-23 18:56 | 59.80433 | 25.05645 | 20325 ft | 264 kts | 0° |
| 2026-04-23 18:57 | 59.82257 | 25.05823 | 19956 ft | 263 kts | 0° |
| 2026-04-23 18:57 | 59.84091 | 25.06005 | 19265 ft | 264 kts | 0° |
| 2026-04-23 18:57 | 59.85884 | 25.06187 | 18629 ft | 261 kts | 0° |
| 2026-04-23 18:57 | 59.87678 | 25.06373 | 18031 ft | 262 kts | 0° |
| 2026-04-23 18:58 | 59.89478 | 25.06563 | 17353 ft | 258 kts | 0° |
| 2026-04-23 18:58 | 59.91273 | 25.06750 | 16692 ft | 259 kts | 0° |
| 2026-04-23 18:58 | 59.93069 | 25.06934 | 16032 ft | 257 kts | 0° |
| 2026-04-23 18:58 | 59.94829 | 25.07113 | 15512 ft | 250 kts | 0° |
| 2026-04-23 18:59 | 59.96535 | 25.07090 | 15009 ft | 241 kts | 348° |
| 2026-04-23 18:59 | 59.98011 | 25.05617 | 14510 ft | 242 kts | 321° |
| 2026-04-23 18:59 | 59.98953 | 25.02793 | 14018 ft | 250 kts | 303° |
| 2026-04-23 18:59 | 59.99605 | 24.99561 | 13519 ft | 252 kts | 297° |
| 2026-04-23 19:00 | 60.00388 | 24.96558 | 12969 ft | 236 kts | 319° |
| 2026-04-23 19:00 | 60.01544 | 24.94385 | 12443 ft | 230 kts | 321° |
| 2026-04-23 19:00 | 60.02690 | 24.92130 | 11911 ft | 227 kts | 320° |
| 2026-04-23 19:00 | 60.03809 | 24.89916 | 11400 ft | 233 kts | 320° |
| 2026-04-23 19:01 | 60.04983 | 24.87621 | 10890 ft | 239 kts | 320° |
| 2026-04-23 19:01 | 60.06197 | 24.85277 | 10285 ft | 246 kts | 320° |
| 2026-04-23 19:01 | 60.07432 | 24.82915 | 9630 ft | 245 kts | 320° |
| 2026-04-23 19:01 | 60.08688 | 24.80539 | 8907 ft | 245 kts | 320° |
| 2026-04-23 19:02 | 60.09513 | 24.78998 | 8442 ft | 244 kts | 320° |
| 2026-04-23 19:02 | 60.11165 | 24.75951 | 7700 ft | 237 kts | 320° |
| 2026-04-23 19:02 | 60.12371 | 24.73754 | 7182 ft | 231 kts | 320° |
| 2026-04-23 19:02 | 60.13539 | 24.71645 | 6682 ft | 226 kts | 320° |
| 2026-04-23 19:03 | 60.14703 | 24.69561 | 6175 ft | 222 kts | 320° |
| 2026-04-23 19:03 | 60.15854 | 24.67526 | 5619 ft | 219 kts | 321° |
| 2026-04-23 19:03 | 60.17169 | 24.66149 | 5073 ft | 214 kts | 350° |
| 2026-04-23 19:03 | 60.18641 | 24.66032 | 4517 ft | 212 kts | 5° |
| 2026-04-23 19:04 | 60.20100 | 24.66512 | 3905 ft | 214 kts | 9° |
| 2026-04-23 19:04 | 60.21474 | 24.67459 | 3165 ft | 208 kts | 27° |
| 2026-04-23 19:04 | 60.22560 | 24.69329 | 2851 ft | 206 kts | 46° |
| 2026-04-23 19:04 | 60.23389 | 24.71728 | 2696 ft | 210 kts | 55° |
| 2026-04-23 19:05 | 60.24109 | 24.74232 | 2452 ft | 201 kts | 57° |
| 2026-04-23 19:05 | 60.24839 | 24.76498 | 2142 ft | 190 kts | 48° |
| 2026-04-23 19:05 | 60.25716 | 24.78404 | 1848 ft | 180 kts | 41° |
| 2026-04-23 19:05 | 60.26555 | 24.80128 | 1651 ft | 166 kts | 43° |
| 2026-04-23 19:06 | 60.27320 | 24.81796 | 1390 ft | 160 kts | 44° |
| 2026-04-23 19:06 | 60.28131 | 24.83559 | 1145 ft | 172 kts | 44° |
| 2026-04-23 19:06 | 60.28923 | 24.85245 | 934 ft | 160 kts | 44° |
| 2026-04-23 19:06 | 60.29633 | 24.86787 | 786 ft | 143 kts | 45° |
| 2026-04-23 19:07 | 60.30296 | 24.88216 | 503 ft | 136 kts | 45° |
| 2026-04-23 19:07 | 60.30926 | 24.89587 | 279 ft | 131 kts | 45° |
| 2026-04-23 19:07 | 60.31518 | 24.90894 | 146 ft | 116 kts | 46° |
| 2026-04-23 19:07 | 60.31945 | 24.91820 | 150 ft | 59 kts | 47° |
| 2026-04-23 19:08 | 60.32127 | 24.92221 | 160 ft | 19 kts | 48° |
| 2026-04-23 19:08 | 60.32195 | 24.92436 | 165 ft | 18 kts | 62° |
| 2026-04-23 19:08 | 60.32235 | 24.92665 | 168 ft | 11 kts | 75° |
| 2026-04-23 19:08 | 60.32252 | 24.92813 | 168 ft | 10 kts | 79° |
| 2026-04-23 19:09 | 60.32265 | 24.92942 | 169 ft | 10 kts | 78° |
| 2026-04-23 19:09 | 60.32271 | 24.93098 | 168 ft | 13 kts | 108° |
| 2026-04-23 19:09 | 60.32229 | 24.93233 | 168 ft | 10 kts | 89° |
| 2026-04-23 19:09 | 60.32275 | 24.93347 | 169 ft | 14 kts | 46° |
| 2026-04-23 19:10 | 60.32339 | 24.93481 | 171 ft | 13 kts | 46° |
| 2026-04-23 19:10 | 60.32398 | 24.93609 | 171 ft | 12 kts | 47° |
| 2026-04-23 19:10 | 60.32449 | 24.93725 | 171 ft | 10 kts | 48° |
| 2026-04-23 19:10 | 60.32528 | 24.93899 | 170 ft | 22 kts | 47° |
| 2026-04-23 19:11 | 60.32632 | 24.94125 | 171 ft | 21 kts | 47° |
| 2026-04-23 19:11 | 60.32733 | 24.94348 | 173 ft | 22 kts | 47° |
| 2026-04-23 19:11 | 60.32840 | 24.94582 | 174 ft | 22 kts | 47° |
| 2026-04-23 19:11 | 60.32944 | 24.94812 | 177 ft | 22 kts | 46° |
| 2026-04-23 19:12 | 60.33018 | 24.94974 | 176 ft | 24 kts | 48° |
| 2026-04-23 19:12 | 60.33151 | 24.95265 | 178 ft | 16 kts | 48° |
| 2026-04-23 19:12 | 60.33207 | 24.95413 | 182 ft | 11 kts | 70° |
| 2026-04-23 19:12 | 60.33193 | 24.95536 | 182 ft | 11 kts | 125° |
| 2026-04-23 19:13 | 60.33131 | 24.95662 | 180 ft | 13 kts | 137° |
| 2026-04-23 19:13 | 60.33063 | 24.95779 | 181 ft | 15 kts | 144° |
| 2026-04-23 19:13 | 60.32970 | 24.95888 | 178 ft | 16 kts | 150° |
| 2026-04-23 19:13 | 60.32867 | 24.96008 | 174 ft | 18 kts | 149° |
| 2026-04-23 19:14 | 60.32755 | 24.96139 | 173 ft | 20 kts | 150° |
| 2026-04-23 19:14 | 60.32627 | 24.96289 | 173 ft | 22 kts | 150° |
| 2026-04-23 19:14 | 60.32489 | 24.96450 | 174 ft | 24 kts | 150° |
| 2026-04-23 19:14 | 60.32350 | 24.96611 | 172 ft | 19 kts | 149° |
| 2026-04-23 19:15 | 60.32253 | 24.96724 | 166 ft | 17 kts | 150° |
| 2026-04-23 19:15 | 60.32176 | 24.96814 | 166 ft | 10 kts | 150° |
| 2026-04-23 19:15 | 60.32108 | 24.96894 | 166 ft | 13 kts | 150° |
| 2026-04-23 19:15 | 60.32033 | 24.96980 | 166 ft | 14 kts | 153° |
| 2026-04-23 19:16 | 60.31945 | 24.97070 | 166 ft | 13 kts | 153° |
| 2026-04-23 19:16 | 60.31868 | 24.97150 | 166 ft | 9 kts | 153° |
| 2026-04-23 19:16 | 60.31847 | 24.97172 | 166 ft | 5 kts | 153° |
| 2026-04-23 19:17 | 60.31799 | 24.97132 | 167 ft | 4 kts | 239° |
| 2026-04-23 19:17 | 60.31790 | 24.97096 | 167 ft | 2 kts | 242° |
| 2026-04-23 19:17 | 60.31786 | 24.97083 | 167 ft | 1 kts | 241° |
| 2026-04-23 19:17 | 60.31785 | 24.97080 | 167 ft | 0 kts | 241° |
| 2026-04-23 19:18 | 60.31785 | 24.97078 | 167 ft | 0 kts | 241° |